CW3868 Weather Reports


Display with metric or nautical units.
time (UTC)temp
F
wind
direction
speed
MPH
gust
MPH
rain 1hr
in
rain 24hr
in
rain mn
in
humidity
%
barometer
mb
20210118102804 38 232 8.0 13.0 0.00 0.00 0.00 71 1002.0
20210118101805 39 240 5.0 11.0 0.00 0.00 0.00 71 1001.9
20210118100804 39 232 7.0 15.0 0.00 0.00 0.00 71 1001.9
20210118095805 39 240 6.0 13.0 0.00 0.00 0.00 70 1001.9
20210118094804 38 235 7.0 11.0 0.00 0.00 0.00 70 1001.9
20210118093803 39 238 7.0 11.0 0.00 0.00 0.00 70 1001.9
20210118092809 39 232 7.0 14.0 0.00 0.00 0.00 70 1001.9
20210118091804 39 229 8.0 15.0 0.00 0.00 0.00 69 1002.0
20210118090803 39 229 7.0 15.0 0.00 0.00 0.00 69 1001.8
20210118085803 39 229 6.0 12.0 0.00 0.00 0.00 69 1001.9
20210118084808 39 241 5.0 14.0 0.00 0.00 0.00 69 1001.9
20210118083808 39 232 8.0 14.0 0.00 0.00 0.00 69 1001.8
20210118082812 38 223 7.0 11.0 0.00 0.00 0.00 69 1001.7
20210118081803 38 228 6.0 11.0 0.00 0.00 0.00 70 1001.7
20210118080804 38 231 6.0 11.0 0.00 0.00 0.00 70 1001.7
20210118075804 38 239 4.0 10.0 0.00 0.00 0.00 70 1001.7
20210118074803 38 229 5.0 8.0 0.00 0.00 0.00 69 1001.8
20210118073806 38 225 6.0 10.0 0.00 0.00 0.00 68 1001.9
20210118072809 39 228 4.0 11.0 0.00 0.00 0.00 68 1002.0
20210118071803 39 224 6.0 15.0 0.00 0.00 0.00 67 1002.0
20210118070806 39 231 8.0 13.0 0.00 0.00 0.00 66 1001.9
20210118065803 40 226 9.0 13.0 0.00 0.00 0.00 66 1001.9
20210118064804 40 231 7.0 15.0 0.00 0.00 0.00 66 1001.9
20210118063805 40 232 8.0 16.0 0.00 0.00 0.00 65 1001.9
20210118062811 40 226 6.0 14.0 0.00 0.00 0.00 66 1001.8
20210118061805 40 236 7.0 15.0 0.00 0.00 0.00 66 1001.7
20210118060806 40 232 8.0 15.0 0.00 0.00 0.00 65 1001.7
20210118055808 40 229 8.0 16.0 0.00 0.00 0.00 66 1001.6
20210118054803 40 228 9.0 14.0 0.00 0.00 0.00 66 1001.5
20210118053805 40 225 7.0 14.0 0.00 0.00 0.00 66 1001.5
20210118052809 40 219 8.0 12.0 0.00 0.00 0.00 66 1001.4
20210118051806 40 221 6.0 14.0 0.00 0.00 0.00 66 1001.4
20210118050804 40 233 8.0 13.0 0.00 0.00 0.00 66 1001.5
20210118045807 40 239 7.0 13.0 0.00 1.23 0.00 66 1001.5
20210118044809 40 230 7.0 14.0 0.00 0.00 0.00 66 1001.5
20210118043807 39 232 6.0 10.0 0.00 0.00 0.00 67 1001.6
20210118042816 39 240 6.0 12.0 0.00 0.00 0.00 67 1001.5
20210118041807 39 269 7.0 11.0 0.00 0.00 0.00 66 1001.4
20210118040803 39 249 5.0 12.0 0.00 0.00 0.00 65 1001.5
20210118035805 39 239 4.0 11.0 0.00 0.00 0.00 65 1001.6
20210118034804 39 254 7.0 12.0 0.00 0.00 0.00 65 1001.7
20210118033805 40 254 7.0 15.0 0.00 0.00 0.00 64 1001.6
20210118032816 40 252 9.0 17.0 0.00 0.00 0.00 63 1001.6
20210118031804 40 260 10.0 21.0 0.00 0.00 0.00 63 1001.4
20210118030805 40 253 10.0 23.0 0.00 0.00 0.00 62 1001.5
20210118025803 40 272 13.0 24.0 0.00 0.00 0.00 62 1001.3
20210118024803 40 264 11.0 23.0 0.00 0.00 0.00 62 1001.3
20210118023810 41 265 11.0 20.0 0.00 0.00 0.00 62 1001.2
20210118022805 41 257 13.0 21.0 0.00 0.00 0.00 62 1000.9
20210118021803 41 265 8.0 19.0 0.00 0.00 0.00 63 1001.0
20210118020805 41 276 13.0 24.0 0.00 0.00 0.00 63 1000.7
20210118015803 41 278 9.0 20.0 0.00 0.00 0.00 63 1000.5
20210118014807 41 259 10.0 20.0 0.00 0.00 0.00 63 1000.4
20210118013805 41 272 12.0 25.0 0.00 0.00 0.00 63 1000.3
20210118012815 41 267 17.0 29.0 0.00 0.00 0.00 63 1000.4
20210118011802 40 262 12.0 23.0 0.00 0.00 0.00 64 1000.1
20210118010805 41 268 12.0 19.0 0.00 0.00 0.00 64 1000.0
20210118005807 40 271 16.0 26.0 0.00 0.00 0.00 64 1000.0
20210118004812 41 262 12.0 21.0 0.00 0.00 0.00 65 1000.0
20210118003807 41 260 11.0 20.0 0.00 0.00 0.00 65 999.8
20210118002818 41 260 13.0 21.0 0.00 0.00 0.00 64 999.9
20210118001803 41 260 10.0 18.0 0.00 0.00 0.00 65 999.9
20210118000803 41 268 13.0 21.0 0.00 0.00 0.00 65 999.7
20210117235803 41 251 8.0 18.0 0.00 0.00 0.00 65 999.6
20210117234944 41 245 9.0 18.0 0.00 0.00 0.00 65 999.6
20210117233806 41 247 10.0 21.0 0.00 0.00 0.00 65 999.3
20210117232806 40 250 7.0 16.0 0.00 0.00 0.00 65 999.1
20210117231804 40 246 10.0 16.0 0.00 0.00 0.00 65 999.0
20210117230804 40 268 10.0 24.0 0.00 0.00 0.00 65 999.1
20210117225806 40 250 8.0 17.0 0.00 0.00 0.00 65 999.0
20210117224803 40 252 5.0 15.0 0.00 0.00 0.00 65 998.8
20210117223803 40 276 6.0 13.0 0.00 0.00 0.00 65 998.7
20210117222807 40 271 12.0 23.0 0.00 0.00 0.00 65 998.7
20210117221803 40 276 9.0 15.0 0.00 0.00 0.00 65 998.6
20210117220805 40 260 8.0 16.0 0.00 0.00 0.00 65 998.4
20210117215804 40 258 8.0 17.0 0.00 0.00 0.00 65 998.2
20210117214803 40 262 10.0 19.0 0.00 0.00 0.00 64 998.0
20210117213805 40 276 11.0 19.0 0.00 0.00 0.00 64 997.8
20210117212812 41 269 11.0 20.0 0.00 0.00 0.00 63 997.5
20210117211804 41 251 11.0 19.0 0.00 0.00 0.00 62 997.3
20210117210815 41 259 14.0 28.0 0.00 0.00 0.00 62 997.2
20210117205803 41 271 15.0 32.0 0.00 0.00 0.00 62 996.9
20210117204804 41 261 15.0 28.0 0.00 0.00 0.00 62 996.8
20210117203808 41 272 16.0 28.0 0.00 0.00 0.00 61 996.6
20210117202808 41 266 11.0 20.0 0.00 0.00 0.00 61 996.6
20210117201808 41 256 9.0 24.0 0.00 0.00 0.00 61 996.5
20210117200809 41 262 13.0 29.0 0.00 0.00 0.00 61 996.4
20210117195803 41 281 18.0 30.0 0.00 0.00 0.00 60 996.2
20210117194805 41 273 16.0 26.0 0.00 0.00 0.00 60 996.2
20210117193805 41 256 16.0 29.0 0.00 0.00 0.00 60 996.0
20210117192812 41 274 20.0 32.0 0.00 0.01 0.00 60 995.7
20210117191803 41 257 11.0 24.0 0.00 0.03 0.00 60 995.7
20210117190817 41 270 17.0 33.0 0.00 0.03 0.00 59 995.6
20210117185805 41 268 19.0 28.0 0.00 0.03 0.00 59 995.5
20210117184809 42 248 14.0 24.0 0.00 0.03 0.00 58 995.4
20210117183806 42 268 16.0 37.0 0.00 0.03 0.00 58 995.2
20210117182818 42 252 16.0 27.0 0.00 0.03 0.00 57 995.1
20210117181803 43 264 17.0 33.0 0.00 0.03 0.00 56 995.0
20210117180803 43 252 15.0 35.0 0.00 0.03 0.00 57 995.0
20210117175804 42 258 13.0 28.0 0.00 0.04 0.00 58 995.2
20210117174803 42 239 12.0 28.0 0.00 0.04 0.00 58 995.2
20210117173812 42 273 19.0 31.0 0.00 0.04 0.00 58 995.1
20210117172809 41 265 15.0 26.0 0.00 0.04 0.00 60 995.1
20210117171806 41 246 13.0 30.0 0.00 0.05 0.00 60 995.2
20210117170806 41 267 11.0 27.0 0.00 0.05 0.00 60 995.2
20210117165805 41 239 13.0 21.0 0.00 0.05 0.00 60 995.1
20210117164803 40 273 14.0 26.0 0.00 0.05 0.00 61 995.1
20210117163805 40 241 11.0 25.0 0.00 0.05 0.00 62 995.2
20210117162806 40 240 13.0 25.0 0.00 0.05 0.00 62 995.2
20210117161807 40 263 11.0 24.0 0.00 0.05 0.00 63 995.2
20210117160804 39 235 10.0 20.0 0.00 0.05 0.00 64 995.3
20210117155809 39 255 13.0 20.0 0.00 0.05 0.00 64 995.4
20210117154803 39 238 10.0 20.0 0.00 0.05 0.00 64 995.6
20210117153806 39 226 8.0 23.0 0.00 0.06 0.00 64 995.6
20210117152807 39 239 12.0 19.0 0.00 0.07 0.00 64 995.6
20210117151804 39 252 10.0 19.0 0.00 0.09 0.00 63 995.5
20210117145803 39 252 12.0 21.0 0.00 0.17 0.00 63 995.5
20210117144803 39 254 10.0 28.0 0.00 0.21 0.00 64 995.2
20210117143803 39 230 12.0 25.0 0.00 0.24 0.00 63 995.2
20210117142809 39 254 13.0 25.0 0.00 0.29 0.00 62 995.1
20210117141803 39 229 11.0 28.0 0.00 0.33 0.00 63 995.1
20210117140804 39 247 13.0 24.0 0.00 0.37 0.00 63 995.0
20210117135810 38 265 9.0 19.0 0.00 0.41 0.00 64 994.8
20210117134803 38 247 11.0 22.0 0.00 0.45 0.00 65 994.6
20210117133807 37 251 9.0 19.0 0.00 0.49 0.00 67 994.5
20210117132806 37 254 11.0 19.0 0.00 0.54 0.00 68 994.5
20210117131803 37 248 9.0 22.0 0.00 0.57 0.00 69 994.4
20210117130804 36 247 12.0 22.0 0.00 0.62 0.00 70 994.3
20210117125803 36 273 14.0 26.0 0.00 0.69 0.00 71 994.0
20210117124804 36 246 9.0 20.0 0.00 0.75 0.00 71 993.9
20210117123803 36 241 12.0 22.0 0.00 0.81 0.00 71 993.7
20210117122811 36 248 9.0 15.0 0.00 0.86 0.00 71 993.6
20210117121803 36 257 13.0 18.0 0.00 0.88 0.00 71 993.7
20210117120803 36 247 9.0 23.0 0.00 0.93 0.00 71 993.6
20210117115804 36 260 12.0 23.0 0.00 0.97 0.00 70 993.5
20210117114803 36 265 15.0 26.0 0.00 1.00 0.00 70 993.3
20210117113807 36 246 11.0 23.0 0.00 1.01 0.00 70 993.2
20210117112807 36 263 14.0 20.0 0.00 1.06 0.00 70 993.0
20210117111836 36 262 16.0 28.0 0.00 1.09 0.00 70 992.9
20210117110803 36 243 9.0 33.0 0.00 1.12 0.00 70 992.9
20210117105807 36 258 13.0 24.0 0.00 1.15 0.00 70 992.8
20210117104804 36 260 15.0 30.0 0.00 1.17 0.00 71 992.4
20210117103806 36 272 16.0 24.0 0.00 1.18 0.00 71 992.5